Aérodrome :
LOGIN :

S'inscrire | Disclaimer

   EN    FR    IT 

 










Légende :    VFR   VFR Marginal   IFR   IFR Intensif   IFR Très Intensif
Visi : 
Plafond : 
>= 8 km
>= 3000ft
5 à 8 km
1000 à 3000 ft
1500m à 5 km
500 à 1000 ft
800 à 1500m
200 à 500 ft
< 800m
< 200 ft
Symboles :   Orages  Brouillard  Fortes neiges  Fortes précipitations  Vent > 20 kt
SIGMETs :   Divers  Orages  Givrage  Turbulence  Onde Orograph.  Cendres Volcan.







- Altitude de l'aérodrome : 256 ft
- Code IATA : CFR
- Voir les cartes d'approche


LFRK - Caen

DERNIER METAR :
  • 131930Z AUTO 09009KT CAVOK 01/M02 Q1015 NOSIG

METARs EXPIRÉS :
  • 131900Z AUTO 09008KT CAVOK 01/M02 Q1015 NOSIG
  • 131830Z AUTO 07009KT CAVOK 01/M02 Q1015 NOSIG
  • 131800Z AUTO 08006KT CAVOK 01/M02 Q1015 NOSIG
  • 131730Z AUTO 08008KT CAVOK 02/M02 Q1014 NOSIG
  • 131700Z AUTO 08009KT CAVOK 02/M01 Q1014 NOSIG

TAF TAF LFRK
Valide du 13 à 15h jusqu'au 14 à 00h UTC


131400Z 1315/1324 10014KT 9999 FEW020
BECMG 1322/1324 08005KT
Météo : +33 2 31 26 68 11
Pas de NOTAMs connus pour ce terrain.
2 SIGMETs publiés pour la FIR Brest (LFRR) :
 
Givrage fort
LFRR SIGMET 4 VALID 131730/132000 LFPW
LFRR BREST FIR/UIR SEV ICE OBS AT 1720Z WI N4815 W00500 - N4845 W00415 - N4745 W00245 - N4715 W00330 - N4815 W00500 FL050/100 STNR NC=
Turbulence forte
LFRR SIGMET 3 VALID 131600/132000 LFPW
LFRR BREST FIR/UIR SEV TURB FCST WI N4830 W00800 - N4900 W00800 - N4930 W00530 - N4400 W00400 - N4445 W00730 - N4830 W00800 FL200/360 MOV E 15KT NC=



MET'MAP, la Météo Aéronautique d'un coup d'oeil ! - Copyright ORBIFLY Décembre 2007 - Disclaimer

ORBIFLY MET'MAP TEAM :

Programmation & Développement : Alexandra Zaïnal
Conception & Développement : Baudouin d'Aumeries
Co-Programmation & Développement : Marc-Olivier Méhu
Soutien technique & logistique : Manuel Goepfert

Contact : metmap@orbifly.com




SOURCES & CREDITS :

   NOAA